sensor_id;sensor_type;location;lat;lon;timestamp;pressure;altitude;pressure_sealevel;temperature;humidity
73633;BME280;61927;50.080;14.418;2023-12-04T00:00:35;100135.63;;;-3.48;75.61
73633;BME280;61927;50.080;14.418;2023-12-04T00:03:21;100139.13;;;-3.38;75.89
73633;BME280;61927;50.080;14.418;2023-12-04T00:05:46;100128.75;;;-3.40;75.47
73633;BME280;61927;50.080;14.418;2023-12-04T00:08:12;100135.69;;;-3.37;75.17
73633;BME280;61927;50.080;14.418;2023-12-04T00:10:38;100129.59;;;-3.41;74.87
73633;BME280;61927;50.080;14.418;2023-12-04T00:13:03;100125.25;;;-3.45;75.31
73633;BME280;61927;50.080;14.418;2023-12-04T00:15:29;100126.13;;;-3.43;75.78
73633;BME280;61927;50.080;14.418;2023-12-04T00:17:54;100122.66;;;-3.45;75.15
73633;BME280;61927;50.080;14.418;2023-12-04T00:20:20;100122.66;;;-3.45;75.25
73633;BME280;61927;50.080;14.418;2023-12-04T00:22:45;100119.22;;;-3.44;75.38
73633;BME280;61927;50.080;14.418;2023-12-04T00:25:11;100120.09;;;-3.39;74.74
73633;BME280;61927;50.080;14.418;2023-12-04T00:27:37;100126.97;;;-3.50;74.28
73633;BME280;61927;50.080;14.418;2023-12-04T00:30:03;100124.34;;;-3.51;74.69
73633;BME280;61927;50.080;14.418;2023-12-04T00:32:29;100134.72;;;-3.53;74.57
73633;BME280;61927;50.080;14.418;2023-12-04T00:34:55;100125.19;;;-3.60;74.73
73633;BME280;61927;50.080;14.418;2023-12-04T00:37:21;100126.03;;;-3.63;74.72
73633;BME280;61927;50.080;14.418;2023-12-04T00:39:47;100130.31;;;-3.66;74.46
73633;BME280;61927;50.080;14.418;2023-12-04T00:42:13;100119.84;;;-3.81;74.67
73633;BME280;61927;50.080;14.418;2023-12-04T00:44:38;100123.31;;;-3.82;75.24
73633;BME280;61927;50.080;14.418;2023-12-04T00:47:04;100127.63;;;-3.81;75.25
73633;BME280;61927;50.080;14.418;2023-12-04T00:49:31;100138.00;;;-3.80;75.77
73633;BME280;61927;50.080;14.418;2023-12-04T00:51:56;100131.13;;;-3.76;75.41
73633;BME280;61927;50.080;14.418;2023-12-04T00:54:22;100131.06;;;-3.85;75.67
73633;BME280;61927;50.080;14.418;2023-12-04T00:56:47;100131.03;;;-3.92;75.43
73633;BME280;61927;50.080;14.418;2023-12-04T00:59:13;100119.78;;;-3.92;75.69
73633;BME280;61927;50.080;14.418;2023-12-04T01:01:38;100115.53;;;-3.81;75.64
73633;BME280;61927;50.080;14.418;2023-12-04T01:04:04;100118.94;;;-3.91;75.62
73633;BME280;61927;50.080;14.418;2023-12-04T01:06:30;100111.97;;;-3.98;75.50
73633;BME280;61927;50.080;14.418;2023-12-04T01:08:56;100122.34;;;-3.97;76.00
73633;BME280;61927;50.080;14.418;2023-12-04T01:11:22;100118.91;;;-3.94;76.22
73633;BME280;61927;50.080;14.418;2023-12-04T01:13:49;100126.66;;;-3.96;76.10
73633;BME280;61927;50.080;14.418;2023-12-04T01:16:15;100134.44;;;-3.96;77.05
73633;BME280;61927;50.080;14.418;2023-12-04T01:18:41;100137.06;;;-3.94;76.70
73633;BME280;61927;50.080;14.418;2023-12-04T01:21:08;100139.63;;;-3.96;76.63
73633;BME280;61927;50.080;14.418;2023-12-04T01:23:34;100148.28;;;-3.95;76.31
73633;BME280;61927;50.080;14.418;2023-12-04T01:26:04;100145.66;;;-4.00;74.95
73633;BME280;61927;50.080;14.418;2023-12-04T01:28:29;100150.00;;;-3.94;75.50
73633;BME280;61927;50.080;14.418;2023-12-04T01:30:55;100138.81;;;-3.87;74.94
73633;BME280;61927;50.080;14.418;2023-12-04T01:33:20;100145.59;;;-4.06;74.73
73633;BME280;61927;50.080;14.418;2023-12-04T01:35:46;100149.19;;;-3.90;74.90
73633;BME280;61927;50.080;14.418;2023-12-04T01:38:12;100141.41;;;-3.87;74.37
73633;BME280;61927;50.080;14.418;2023-12-04T01:40:37;100145.78;;;-3.83;75.59
73633;BME280;61927;50.080;14.418;2023-12-04T01:43:03;100144.00;;;-3.90;75.34
73633;BME280;61927;50.080;14.418;2023-12-04T01:45:28;100148.25;;;-3.98;75.71
73633;BME280;61927;50.080;14.418;2023-12-04T01:47:54;100143.91;;;-4.01;76.91
73633;BME280;61927;50.080;14.418;2023-12-04T01:50:20;100139.63;;;-3.96;77.30
73633;BME280;61927;50.080;14.418;2023-12-04T01:52:46;100135.28;;;-4.01;77.86
73633;BME280;61927;50.080;14.418;2023-12-04T01:55:14;100133.53;;;-4.04;77.34
73633;BME280;61927;50.080;14.418;2023-12-04T01:57:40;100135.91;;;-4.27;77.82
73633;BME280;61927;50.080;14.418;2023-12-04T02:00:08;100130.72;;;-4.28;77.77
73633;BME280;61927;50.080;14.418;2023-12-04T02:02:38;100132.50;;;-4.24;78.01
73633;BME280;61927;50.080;14.418;2023-12-04T02:05:05;100128.00;;;-4.45;78.62
73633;BME280;61927;50.080;14.418;2023-12-04T02:07:33;100126.13;;;-4.60;78.04
73633;BME280;61927;50.080;14.418;2023-12-04T02:09:59;100127.84;;;-4.59;78.80
73633;BME280;61927;50.080;14.418;2023-12-04T02:12:24;100124.31;;;-4.67;78.98
73633;BME280;61927;50.080;14.418;2023-12-04T02:14:51;100120.84;;;-4.69;78.74
73633;BME280;61927;50.080;14.418;2023-12-04T02:17:17;100117.47;;;-4.60;78.65
73633;BME280;61927;50.080;14.418;2023-12-04T02:19:44;100108.00;;;-4.60;78.38
73633;BME280;61927;50.080;14.418;2023-12-04T02:22:09;100107.16;;;-4.57;79.01
73633;BME280;61927;50.080;14.418;2023-12-04T02:24:35;100110.53;;;-4.66;78.55
73633;BME280;61927;50.080;14.418;2023-12-04T02:27:17;100103.59;;;-4.67;79.25
73633;BME280;61927;50.080;14.418;2023-12-04T02:29:47;100102.81;;;-4.58;79.43
73633;BME280;61927;50.080;14.418;2023-12-04T02:32:18;100098.47;;;-4.64;78.88
73633;BME280;61927;50.080;14.418;2023-12-04T02:34:47;100102.81;;;-4.58;78.65
73633;BME280;61927;50.080;14.418;2023-12-04T02:37:14;100095.84;;;-4.65;78.68
73633;BME280;61927;50.080;14.418;2023-12-04T02:39:41;100101.03;;;-4.67;78.75
73633;BME280;61927;50.080;14.418;2023-12-04T02:42:07;100095.00;;;-4.64;78.68
73633;BME280;61927;50.080;14.418;2023-12-04T02:44:33;100100.22;;;-4.60;77.93
73633;BME280;61927;50.080;14.418;2023-12-04T02:46:58;100101.22;;;-4.47;78.71
73633;BME280;61927;50.080;14.418;2023-12-04T02:49:24;100097.75;;;-4.47;77.67
73633;BME280;61927;50.080;14.418;2023-12-04T02:51:49;100095.94;;;-4.58;77.12
73633;BME280;61927;50.080;14.418;2023-12-04T02:54:15;100089.06;;;-4.52;77.87
73633;BME280;61927;50.080;14.418;2023-12-04T02:56:41;100095.03;;;-4.63;77.78
73633;BME280;61927;50.080;14.418;2023-12-04T02:59:06;100083.00;;;-4.54;78.20
73633;BME280;61927;50.080;14.418;2023-12-04T03:01:32;100079.50;;;-4.60;77.61
73633;BME280;61927;50.080;14.418;2023-12-04T03:03:58;100086.22;;;-4.78;77.66
73633;BME280;61927;50.080;14.418;2023-12-04T03:06:23;100087.28;;;-4.58;77.17
73633;BME280;61927;50.080;14.418;2023-12-04T03:08:49;100094.16;;;-4.62;77.34
73633;BME280;61927;50.080;14.418;2023-12-04T03:11:14;100090.56;;;-4.76;77.40
73633;BME280;61927;50.080;14.418;2023-12-04T03:13:40;100086.31;;;-4.71;77.52
73633;BME280;61927;50.080;14.418;2023-12-04T03:16:06;100069.84;;;-4.79;77.41
73633;BME280;61927;50.080;14.418;2023-12-04T03:18:32;100066.50;;;-4.67;77.99
73633;BME280;61927;50.080;14.418;2023-12-04T03:20:57;100064.78;;;-4.67;78.07
73633;BME280;61927;50.080;14.418;2023-12-04T03:23:23;100057.81;;;-4.74;77.51
73633;BME280;61927;50.080;14.418;2023-12-04T03:25:48;100056.91;;;-4.77;77.21
73633;BME280;61927;50.080;14.418;2023-12-04T03:28:14;100048.31;;;-4.73;77.10
73633;BME280;61927;50.080;14.418;2023-12-04T03:30:41;100049.91;;;-4.86;77.39
73633;BME280;61927;50.080;14.418;2023-12-04T03:33:10;100053.34;;;-4.87;77.32
73633;BME280;61927;50.080;14.418;2023-12-04T03:35:36;100055.25;;;-4.69;77.37
73633;BME280;61927;50.080;14.418;2023-12-04T03:38:02;100051.63;;;-4.88;76.71
73633;BME280;61927;50.080;14.418;2023-12-04T03:40:27;100054.19;;;-4.90;76.96
73633;BME280;61927;50.080;14.418;2023-12-04T03:42:53;100061.13;;;-4.87;77.49
73633;BME280;61927;50.080;14.418;2023-12-04T03:45:18;100061.78;;;-5.08;77.32
73633;BME280;61927;50.080;14.418;2023-12-04T03:47:44;100059.13;;;-5.12;77.49
73633;BME280;61927;50.080;14.418;2023-12-04T03:50:09;100049.75;;;-5.04;78.07
73633;BME280;61927;50.080;14.418;2023-12-04T03:52:35;100040.28;;;-5.02;78.48
73633;BME280;61927;50.080;14.418;2023-12-04T03:55:00;100046.31;;;-5.02;78.17
73633;BME280;61927;50.080;14.418;2023-12-04T03:57:26;100036.78;;;-5.06;78.12
73633;BME280;61927;50.080;14.418;2023-12-04T03:59:52;100034.25;;;-5.01;77.39
73633;BME280;61927;50.080;14.418;2023-12-04T04:02:17;100028.75;;;-5.30;78.18
73633;BME280;61927;50.080;14.418;2023-12-04T04:04:43;100035.75;;;-5.22;78.29
73633;BME280;61927;50.080;14.418;2023-12-04T04:07:09;100032.13;;;-5.37;78.30
73633;BME280;61927;50.080;14.418;2023-12-04T04:09:34;100036.41;;;-5.39;78.93
73633;BME280;61927;50.080;14.418;2023-12-04T04:12:00;100038.94;;;-5.45;79.12
73633;BME280;61927;50.080;14.418;2023-12-04T04:14:25;100036.19;;;-5.58;79.32
73633;BME280;61927;50.080;14.418;2023-12-04T04:16:51;100030.00;;;-5.70;79.55
73633;BME280;61927;50.080;14.418;2023-12-04T04:19:16;100040.34;;;-5.70;80.39
73633;BME280;61927;50.080;14.418;2023-12-04T04:21:42;100038.69;;;-5.67;79.50
73633;BME280;61927;50.080;14.418;2023-12-04T04:24:07;100031.78;;;-5.66;79.39
73633;BME280;61927;50.080;14.418;2023-12-04T04:26:33;100034.44;;;-5.62;79.30
73633;BME280;61927;50.080;14.418;2023-12-04T04:28:58;100028.28;;;-5.71;79.00
73633;BME280;61927;50.080;14.418;2023-12-04T04:31:24;100029.00;;;-5.81;79.12
73633;BME280;61927;50.080;14.418;2023-12-04T04:33:50;100032.47;;;-5.79;78.95
73633;BME280;61927;50.080;14.418;2023-12-04T04:36:16;100028.16;;;-5.80;79.47
73633;BME280;61927;50.080;14.418;2023-12-04T04:38:41;100025.81;;;-5.61;79.03
73633;BME280;61927;50.080;14.418;2023-12-04T04:41:07;100024.88;;;-5.67;79.07
73633;BME280;61927;50.080;14.418;2023-12-04T04:43:32;100024.19;;;-5.54;79.08
73633;BME280;61927;50.080;14.418;2023-12-04T04:45:59;100009.59;;;-5.47;78.45
73633;BME280;61927;50.080;14.418;2023-12-04T04:48:24;100013.06;;;-5.47;78.96
73633;BME280;61927;50.080;14.418;2023-12-04T04:50:50;100014.72;;;-5.52;79.61
73633;BME280;61927;50.080;14.418;2023-12-04T04:53:15;100015.75;;;-5.38;78.76
73633;BME280;61927;50.080;14.418;2023-12-04T04:55:41;100021.75;;;-5.40;77.60
73633;BME280;61927;50.080;14.418;2023-12-04T04:58:06;100020.13;;;-5.32;77.74
73633;BME280;61927;50.080;14.418;2023-12-04T05:00:32;100022.69;;;-5.34;77.09
73633;BME280;61927;50.080;14.418;2023-12-04T05:02:58;100024.31;;;-5.43;77.38
73633;BME280;61927;50.080;14.418;2023-12-04T05:05:23;100023.44;;;-5.44;76.64
73633;BME280;61927;50.080;14.418;2023-12-04T05:07:49;100021.59;;;-5.54;78.02
73633;BME280;61927;50.080;14.418;2023-12-04T05:10:15;100031.94;;;-5.54;77.29
73633;BME280;61927;50.080;14.418;2023-12-04T05:12:40;100031.19;;;-5.44;77.58
73633;BME280;61927;50.080;14.418;2023-12-04T05:15:06;100024.06;;;-5.63;77.53
73633;BME280;61927;50.080;14.418;2023-12-04T05:17:32;100016.47;;;-5.51;78.49
73633;BME280;61927;50.080;14.418;2023-12-04T05:19:57;100010.38;;;-5.55;78.03
73633;BME280;61927;50.080;14.418;2023-12-04T05:22:23;100014.84;;;-5.43;78.72
73633;BME280;61927;50.080;14.418;2023-12-04T05:24:49;100016.38;;;-5.57;78.12
73633;BME280;61927;50.080;14.418;2023-12-04T05:27:14;100018.09;;;-5.58;77.70
73633;BME280;61927;50.080;14.418;2023-12-04T05:29:40;100022.44;;;-5.55;77.67
73633;BME280;61927;50.080;14.418;2023-12-04T05:32:06;100020.72;;;-5.55;77.43
73633;BME280;61927;50.080;14.418;2023-12-04T05:34:31;100011.41;;;-5.40;78.05
73633;BME280;61927;50.080;14.418;2023-12-04T05:36:57;100006.22;;;-5.42;77.65
73633;BME280;61927;50.080;14.418;2023-12-04T05:39:23;100005.41;;;-5.36;76.96
73633;BME280;61927;50.080;14.418;2023-12-04T05:41:48;100002.75;;;-5.44;76.55
73633;BME280;61927;50.080;14.418;2023-12-04T05:44:14;100006.69;;;-5.75;77.04
73633;BME280;61927;50.080;14.418;2023-12-04T05:46:39;100000.81;;;-5.62;77.79
73633;BME280;61927;50.080;14.418;2023-12-04T05:49:05;100004.00;;;-5.82;77.39
73633;BME280;61927;50.080;14.418;2023-12-04T05:51:30;99998.88;;;-5.81;76.21
73633;BME280;61927;50.080;14.418;2023-12-04T05:53:56;99997.31;;;-5.67;75.64
73633;BME280;61927;50.080;14.418;2023-12-04T05:56:21;99989.50;;;-5.73;76.14
73633;BME280;61927;50.080;14.418;2023-12-04T05:58:47;99983.28;;;-5.90;77.06
73633;BME280;61927;50.080;14.418;2023-12-04T06:01:14;99975.66;;;-5.76;78.22
73633;BME280;61927;50.080;14.418;2023-12-04T06:03:40;99969.66;;;-5.75;77.31
73633;BME280;61927;50.080;14.418;2023-12-04T06:06:06;99971.50;;;-5.64;77.08
73633;BME280;61927;50.080;14.418;2023-12-04T06:08:32;99981.81;;;-5.67;75.51
73633;BME280;61927;50.080;14.418;2023-12-04T06:10:57;99980.28;;;-5.48;75.52
73633;BME280;61927;50.080;14.418;2023-12-04T06:13:23;99969.94;;;-5.49;75.47
73633;BME280;61927;50.080;14.418;2023-12-04T06:15:49;99978.59;;;-5.46;76.68
73633;BME280;61927;50.080;14.418;2023-12-04T06:18:15;99979.63;;;-5.30;75.84
73633;BME280;61927;50.080;14.418;2023-12-04T06:20:40;99971.03;;;-5.28;75.22
73633;BME280;61927;50.080;14.418;2023-12-04T06:23:06;99969.13;;;-5.45;75.56
73633;BME280;61927;50.080;14.418;2023-12-04T06:25:32;99975.00;;;-5.60;76.61
73633;BME280;61927;50.080;14.418;2023-12-04T06:27:58;99972.34;;;-5.65;76.28
73633;BME280;61927;50.080;14.418;2023-12-04T06:30:24;99964.31;;;-5.88;76.71
73633;BME280;61927;50.080;14.418;2023-12-04T06:32:50;99970.38;;;-5.86;76.76
73633;BME280;61927;50.080;14.418;2023-12-04T06:35:16;99968.81;;;-5.73;77.07
73633;BME280;61927;50.080;14.418;2023-12-04T06:37:43;99967.34;;;-5.49;76.91
73633;BME280;61927;50.080;14.418;2023-12-04T06:40:09;99968.19;;;-5.50;75.85
73633;BME280;61927;50.080;14.418;2023-12-04T06:42:37;99966.59;;;-5.41;76.42
73633;BME280;61927;50.080;14.418;2023-12-04T06:45:03;99967.47;;;-5.39;75.93
73633;BME280;61927;50.080;14.418;2023-12-04T06:47:31;99958.75;;;-5.48;75.81
73633;BME280;61927;50.080;14.418;2023-12-04T06:49:57;99959.69;;;-5.42;76.03
73633;BME280;61927;50.080;14.418;2023-12-04T06:52:22;99954.47;;;-5.45;75.54
73633;BME280;61927;50.080;14.418;2023-12-04T06:54:48;99951.06;;;-5.41;75.91
73633;BME280;61927;50.080;14.418;2023-12-04T06:57:13;99948.28;;;-5.61;74.81
73633;BME280;61927;50.080;14.418;2023-12-04T06:59:43;99957.81;;;-5.55;75.80
73633;BME280;61927;50.080;14.418;2023-12-04T07:02:08;99946.63;;;-5.53;75.80
73633;BME280;61927;50.080;14.418;2023-12-04T07:04:34;99950.13;;;-5.49;75.12
73633;BME280;61927;50.080;14.418;2023-12-04T07:07:00;99953.38;;;-5.67;75.39
73633;BME280;61927;50.080;14.418;2023-12-04T07:09:33;99944.78;;;-5.64;75.61
73633;BME280;61927;50.080;14.418;2023-12-04T07:12:02;99944.72;;;-5.69;75.46
73633;BME280;61927;50.080;14.418;2023-12-04T07:14:28;99950.69;;;-5.74;75.69
73633;BME280;61927;50.080;14.418;2023-12-04T07:16:54;99942.81;;;-5.87;75.92
73633;BME280;61927;50.080;14.418;2023-12-04T07:19:19;99942.84;;;-5.83;76.08
73633;BME280;61927;50.080;14.418;2023-12-04T07:21:45;99943.66;;;-5.88;76.07
73633;BME280;61927;50.080;14.418;2023-12-04T07:24:10;99940.22;;;-5.87;76.25
73633;BME280;61927;50.080;14.418;2023-12-04T07:26:36;99937.63;;;-5.91;76.10
73633;BME280;61927;50.080;14.418;2023-12-04T07:29:03;99941.16;;;-5.81;76.31
73633;BME280;61927;50.080;14.418;2023-12-04T07:31:29;99942.03;;;-5.79;76.14
73633;BME280;61927;50.080;14.418;2023-12-04T07:33:55;99941.31;;;-5.66;76.17
73633;BME280;61927;50.080;14.418;2023-12-04T07:36:21;99936.09;;;-5.71;75.60
73633;BME280;61927;50.080;14.418;2023-12-04T07:38:47;99936.78;;;-5.86;75.18
73633;BME280;61927;50.080;14.418;2023-12-04T07:41:12;99937.66;;;-5.85;75.24
73633;BME280;61927;50.080;14.418;2023-12-04T07:43:39;99929.00;;;-5.89;75.95
73633;BME280;61927;50.080;14.418;2023-12-04T07:46:05;99928.22;;;-5.83;75.86
73633;BME280;61927;50.080;14.418;2023-12-04T07:48:31;99928.25;;;-5.78;75.49
73633;BME280;61927;50.080;14.418;2023-12-04T07:50:56;99930.59;;;-6.01;76.00
73633;BME280;61927;50.080;14.418;2023-12-04T07:53:22;99929.50;;;-6.22;77.15
73633;BME280;61927;50.080;14.418;2023-12-04T07:55:48;99927.06;;;-6.09;76.43
73633;BME280;61927;50.080;14.418;2023-12-04T07:58:17;99928.72;;;-6.14;75.88
73633;BME280;61927;50.080;14.418;2023-12-04T08:00:43;99933.97;;;-6.07;76.15
73633;BME280;61927;50.080;14.418;2023-12-04T08:03:09;99930.47;;;-6.13;76.61
73633;BME280;61927;50.080;14.418;2023-12-04T08:05:36;99933.91;;;-6.13;76.41
73633;BME280;61927;50.080;14.418;2023-12-04T08:08:02;99930.72;;;-5.91;75.79
73633;BME280;61927;50.080;14.418;2023-12-04T08:10:27;99919.75;;;-5.70;76.63
73633;BME280;61927;50.080;14.418;2023-12-04T08:12:53;99920.56;;;-5.74;75.42
73633;BME280;61927;50.080;14.418;2023-12-04T08:15:19;99918.03;;;-5.68;75.04
73633;BME280;61927;50.080;14.418;2023-12-04T08:17:44;99918.97;;;-5.61;75.14
73633;BME280;61927;50.080;14.418;2023-12-04T08:20:10;99917.38;;;-5.48;74.07
73633;BME280;61927;50.080;14.418;2023-12-04T08:22:42;99915.66;;;-5.46;74.23
73633;BME280;61927;50.080;14.418;2023-12-04T08:25:10;99909.44;;;-5.67;74.31
73633;BME280;61927;50.080;14.418;2023-12-04T08:27:36;99906.94;;;-5.58;73.25
73633;BME280;61927;50.080;14.418;2023-12-04T08:30:01;99906.09;;;-5.55;74.74
73633;BME280;61927;50.080;14.418;2023-12-04T08:32:30;99906.25;;;-5.40;73.76
73633;BME280;61927;50.080;14.418;2023-12-04T08:34:55;99903.69;;;-5.38;74.18
73633;BME280;61927;50.080;14.418;2023-12-04T08:37:21;99908.13;;;-5.24;73.88
73633;BME280;61927;50.080;14.418;2023-12-04T08:39:46;99901.28;;;-5.15;72.98
73633;BME280;61927;50.080;14.418;2023-12-04T08:42:12;99908.31;;;-5.02;72.69
73633;BME280;61927;50.080;14.418;2023-12-04T08:44:38;99904.03;;;-4.96;72.30
73633;BME280;61927;50.080;14.418;2023-12-04T08:47:04;99907.47;;;-5.00;72.30
73633;BME280;61927;50.080;14.418;2023-12-04T08:49:30;99906.66;;;-4.93;71.82
73633;BME280;61927;50.080;14.418;2023-12-04T08:51:56;99910.03;;;-5.00;70.86
73633;BME280;61927;50.080;14.418;2023-12-04T08:54:22;99904.09;;;-4.86;71.09
73633;BME280;61927;50.080;14.418;2023-12-04T08:56:47;99896.38;;;-4.82;70.66
73633;BME280;61927;50.080;14.418;2023-12-04T08:59:13;99899.81;;;-4.83;70.51
73633;BME280;61927;50.080;14.418;2023-12-04T09:01:39;99899.81;;;-4.83;71.45
73633;BME280;61927;50.080;14.418;2023-12-04T09:04:04;99897.34;;;-4.66;71.55
73633;BME280;61927;50.080;14.418;2023-12-04T09:06:30;99893.84;;;-4.71;71.66
73633;BME280;61927;50.080;14.418;2023-12-04T09:08:56;99894.38;;;-5.16;72.40
73633;BME280;61927;50.080;14.418;2023-12-04T09:11:22;99891.88;;;-5.07;71.26
73633;BME280;61927;50.080;14.418;2023-12-04T09:13:47;99883.44;;;-4.83;71.40
73633;BME280;61927;50.080;14.418;2023-12-04T09:16:13;99882.59;;;-4.81;71.46
73633;BME280;61927;50.080;14.418;2023-12-04T09:18:39;99875.72;;;-4.73;71.92
73633;BME280;61927;50.080;14.418;2023-12-04T09:21:05;99870.59;;;-4.67;72.70
73633;BME280;61927;50.080;14.418;2023-12-04T09:23:30;99875.00;;;-4.50;73.78
73633;BME280;61927;50.080;14.418;2023-12-04T09:25:56;99868.16;;;-4.35;73.62
73633;BME280;61927;50.080;14.418;2023-12-04T09:28:22;99863.88;;;-4.27;72.19
73633;BME280;61927;50.080;14.418;2023-12-04T09:30:48;99855.16;;;-4.47;71.35
73633;BME280;61927;50.080;14.418;2023-12-04T09:33:13;99856.94;;;-4.34;70.79
73633;BME280;61927;50.080;14.418;2023-12-04T09:35:39;99848.41;;;-4.13;71.54
73633;BME280;61927;50.080;14.418;2023-12-04T09:38:05;99847.56;;;-4.00;71.56
73633;BME280;61927;50.080;14.418;2023-12-04T09:40:30;99839.81;;;-3.98;70.59
73633;BME280;61927;50.080;14.418;2023-12-04T09:42:56;99838.03;;;-4.13;71.61
73633;BME280;61927;50.080;14.418;2023-12-04T09:45:24;99828.31;;;-4.63;72.73
73633;BME280;61927;50.080;14.418;2023-12-04T09:47:49;99836.81;;;-4.88;74.12
73633;BME280;61927;50.080;14.418;2023-12-04T09:50:18;99823.00;;;-4.90;73.99
73633;BME280;61927;50.080;14.418;2023-12-04T09:52:48;99811.84;;;-4.77;74.45
73633;BME280;61927;50.080;14.418;2023-12-04T09:55:15;99817.25;;;-4.28;73.93
73633;BME280;61927;50.080;14.418;2023-12-04T09:57:44;99801.78;;;-4.01;73.18
73633;BME280;61927;50.080;14.418;2023-12-04T10:00:13;99788.84;;;-3.90;72.65
73633;BME280;61927;50.080;14.418;2023-12-04T10:02:39;99794.03;;;-3.81;72.05
73633;BME280;61927;50.080;14.418;2023-12-04T10:05:07;99792.31;;;-3.71;71.78
73633;BME280;61927;50.080;14.418;2023-12-04T10:07:33;99775.00;;;-3.92;72.43
73633;BME280;61927;50.080;14.418;2023-12-04T10:09:59;99768.13;;;-3.84;73.52
73633;BME280;61927;50.080;14.418;2023-12-04T10:12:25;99766.38;;;-3.73;72.96
73633;BME280;61927;50.080;14.418;2023-12-04T10:15:08;99752.56;;;-3.72;72.27
73633;BME280;61927;50.080;14.418;2023-12-04T10:17:36;99748.25;;;-3.51;71.04
73633;BME280;61927;50.080;14.418;2023-12-04T10:20:15;99739.59;;;-3.43;70.75
73633;BME280;61927;50.080;14.418;2023-12-04T10:23:00;99726.59;;;-3.32;71.76
73633;BME280;61927;50.080;14.418;2023-12-04T10:25:30;99726.53;;;-3.08;70.26
73633;BME280;61927;50.080;14.418;2023-12-04T10:28:10;99730.00;;;-3.04;70.74
73633;BME280;61927;50.080;14.418;2023-12-04T10:30:36;99716.94;;;-2.84;68.73
73633;BME280;61927;50.080;14.418;2023-12-04T10:33:04;99719.63;;;-3.15;70.62
73633;BME280;61927;50.080;14.418;2023-12-04T10:35:34;99717.91;;;-3.11;70.07
73633;BME280;61927;50.080;14.418;2023-12-04T10:38:05;99714.50;;;-3.39;69.79
73633;BME280;61927;50.080;14.418;2023-12-04T10:40:32;99722.28;;;-3.41;70.64
73633;BME280;61927;50.080;14.418;2023-12-04T10:43:11;99718.78;;;-3.21;70.91
73633;BME280;61927;50.080;14.418;2023-12-04T10:45:38;99714.50;;;-3.39;70.38
73633;BME280;61927;50.080;14.418;2023-12-04T10:48:08;99721.41;;;-3.24;70.18
73633;BME280;61927;50.080;14.418;2023-12-04T10:50:35;99717.94;;;-3.34;70.66
73633;BME280;61927;50.080;14.418;2023-12-04T10:53:04;99717.97;;;-3.39;70.95
73633;BME280;61927;50.080;14.418;2023-12-04T10:55:30;99710.19;;;-3.51;71.27
73633;BME280;61927;50.080;14.418;2023-12-04T10:57:56;99706.75;;;-3.56;71.76
73633;BME280;61927;50.080;14.418;2023-12-04T11:00:22;99705.03;;;-3.63;70.77
73633;BME280;61927;50.080;14.418;2023-12-04T11:02:49;99705.00;;;-3.39;70.28
73633;BME280;61927;50.080;14.418;2023-12-04T11:05:20;99703.28;;;-3.53;69.57
73633;BME280;61927;50.080;14.418;2023-12-04T11:07:50;99697.22;;;-3.57;69.71
73633;BME280;61927;50.080;14.418;2023-12-04T11:10:21;99696.34;;;-3.48;69.47
73633;BME280;61927;50.080;14.418;2023-12-04T11:12:51;99692.88;;;-3.43;70.28
73633;BME280;61927;50.080;14.418;2023-12-04T11:15:23;99678.19;;;-3.41;70.50
73633;BME280;61927;50.080;14.418;2023-12-04T11:17:59;99672.97;;;-3.26;70.09
73633;BME280;61927;50.080;14.418;2023-12-04T11:20:28;99671.16;;;-3.07;70.36
73633;BME280;61927;50.080;14.418;2023-12-04T11:22:56;99668.53;;;-2.98;70.42
73633;BME280;61927;50.080;14.418;2023-12-04T11:25:23;99669.41;;;-3.02;69.95
73633;BME280;61927;50.080;14.418;2023-12-04T11:27:52;99662.50;;;-3.06;69.30
73633;BME280;61927;50.080;14.418;2023-12-04T11:30:18;99651.09;;;-2.70;69.37
73633;BME280;61927;50.080;14.418;2023-12-04T11:32:45;99637.91;;;-2.39;68.34
73633;BME280;61927;50.080;14.418;2023-12-04T11:35:17;99629.13;;;-2.23;65.63
73633;BME280;61927;50.080;14.418;2023-12-04T11:37:46;99627.34;;;-2.15;66.42
73633;BME280;61927;50.080;14.418;2023-12-04T11:40:16;99627.44;;;-2.29;66.08
73633;BME280;61927;50.080;14.418;2023-12-04T11:42:42;99626.66;;;-2.37;67.21
73633;BME280;61927;50.080;14.418;2023-12-04T11:45:09;99620.69;;;-2.51;67.52
73633;BME280;61927;50.080;14.418;2023-12-04T11:47:56;99613.69;;;-2.43;66.78
73633;BME280;61927;50.080;14.418;2023-12-04T11:50:26;99598.97;;;-2.44;68.27
73633;BME280;61927;50.080;14.418;2023-12-04T11:52:52;99590.59;;;-2.87;68.41
73633;BME280;61927;50.080;14.418;2023-12-04T11:55:22;99580.81;;;-2.45;69.34
73633;BME280;61927;50.080;14.418;2023-12-04T11:57:54;99574.84;;;-2.59;68.60
73633;BME280;61927;50.080;14.418;2023-12-04T12:00:21;99572.19;;;-2.50;69.36
73633;BME280;61927;50.080;14.418;2023-12-04T12:05:20;99563.38;;;-2.31;69.42
73633;BME280;61927;50.080;14.418;2023-12-04T12:07:46;99558.84;;;-2.11;69.03
73633;BME280;61927;50.080;14.418;2023-12-04T12:10:12;99545.06;;;-2.17;69.87
73633;BME280;61927;50.080;14.418;2023-12-04T12:12:44;99551.81;;;-2.00;68.12
73633;BME280;61927;50.080;14.418;2023-12-04T12:15:11;99542.16;;;-1.88;68.33
73633;BME280;61927;50.080;14.418;2023-12-04T12:17:38;99539.50;;;-1.82;67.19
73633;BME280;61927;50.080;14.418;2023-12-04T12:20:12;99538.75;;;-1.92;67.96
73633;BME280;61927;50.080;14.418;2023-12-04T12:22:38;99547.53;;;-2.05;67.49
73633;BME280;61927;50.080;14.418;2023-12-04T12:25:08;99543.19;;;-2.05;68.07
73633;BME280;61927;50.080;14.418;2023-12-04T12:27:34;99542.38;;;-2.10;68.92
73633;BME280;61927;50.080;14.418;2023-12-04T12:30:00;99536.94;;;-1.87;68.33
73633;BME280;61927;50.080;14.418;2023-12-04T12:32:26;99524.97;;;-2.02;69.18
73633;BME280;61927;50.080;14.418;2023-12-04T12:34:53;99513.84;;;-2.16;69.86
73633;BME280;61927;50.080;14.418;2023-12-04T12:37:20;99509.53;;;-2.17;70.68
73633;BME280;61927;50.080;14.418;2023-12-04T12:39:47;99506.91;;;-2.14;71.05
73633;BME280;61927;50.080;14.418;2023-12-04T12:42:25;99492.91;;;-2.01;70.82
73633;BME280;61927;50.080;14.418;2023-12-04T12:44:52;99494.41;;;-1.81;69.68